Time;durP1;ratioP1;P1;durP2;ratioP2;P2;SDS_P1;SDS_P2;PMS_P1;PMS_P2;Temp;Humidity;BMP_temperature;BMP_pressure;BME280_temperature;BME280_humidity;BME280_pressure;Samples;Min_cycle;Max_cycle;Signal;HPM_P1;HPM_P2
2023/06/08 00:01:44;;;;;;;13.13;8.63;;;30.00;96.60;;;;;;4974679;28;20086;-56
2023/06/08 00:04:12;;;;;;;10.60;7.65;;;30.00;97.20;;;;;;4971884;28;20018;-54
2023/06/08 00:06:40;;;;;;;26.52;18.88;;;29.90;97.30;;;;;;4973394;28;20035;-54
2023/06/08 00:09:07;;;;;;;46.20;38.45;;;29.90;97.40;;;;;;4974714;28;20035;-54
2023/06/08 00:11:33;;;;;;;20.83;16.45;;;30.00;97.70;;;;;;4967479;29;20042;-54
2023/06/08 00:14:01;;;;;;;15.68;9.75;;;30.00;98.10;;;;;;4967333;29;20023;-53
2023/06/08 00:16:28;;;;;;;11.32;7.53;;;30.00;98.60;;;;;;4967819;29;20035;-56
2023/06/08 00:18:56;;;;;;;9.18;4.70;;;30.10;98.90;;;;;;4966690;29;20346;-55
2023/06/08 00:21:26;;;;;;;7.00;4.70;;;30.00;98.60;;;;;;4967545;29;20062;-56
2023/06/08 00:23:52;;;;;;;9.68;5.50;;;29.90;98.80;;;;;;4967077;29;20035;-60
2023/06/08 00:26:19;;;;;;;10.98;5.95;;;30.10;99.00;;;;;;4967666;29;20046;-58
2023/06/08 00:28:50;;;;;;;6.53;4.57;;;30.20;98.80;;;;;;4967050;29;20070;-57
2023/06/08 00:31:17;;;;;;;4.30;3.58;;;30.40;98.70;;;;;;4967604;29;20031;-56
2023/06/08 00:33:43;;;;;;;8.43;4.45;;;30.40;98.50;;;;;;4966733;29;20027;-58
2023/06/08 00:36:14;;;;;;;6.53;4.00;;;30.50;98.20;;;;;;4967270;29;20027;-60
2023/06/08 00:38:40;;;;;;;7.95;3.95;;;30.50;98.10;;;;;;4966882;29;20102;-57
2023/06/08 00:41:07;;;;;;;6.20;3.38;;;30.60;98.00;;;;;;4967382;29;20023;-56
2023/06/08 00:43:34;;;;;;;6.65;3.28;;;30.50;97.90;;;;;;4966718;29;20082;-64
2023/06/08 00:46:02;;;;;;;5.85;2.72;;;30.30;97.80;;;;;;4967082;29;20031;-61
2023/06/08 00:48:30;;;;;;;2.92;1.30;;;30.10;98.00;;;;;;4966410;29;20031;-60
2023/06/08 00:51:00;;;;;;;5.47;1.30;;;30.10;98.40;;;;;;4967090;29;20027;-61
2023/06/08 00:53:28;;;;;;;5.22;1.33;;;30.20;98.60;;;;;;4966639;29;20264;-61
2023/06/08 00:55:57;;;;;;;5.75;1.30;;;30.20;98.80;;;;;;4966845;29;20146;-59
2023/06/08 00:58:24;;;;;;;4.28;1.23;;;30.20;98.90;;;;;;4968542;28;20035;-61
2023/06/08 01:00:59;;;;;;;6.82;1.40;;;30.20;99.00;;;;;;4975282;28;20054;-59
2023/06/08 01:03:33;;;;;;;;;;;30.30;99.20;;;;;;4966319;28;20015;-62
2023/06/08 01:06:02;;;;;;;8.32;2.60;;;30.20;99.30;;;;;;4977869;28;19910;-59
2023/06/08 01:08:58;;;;;;;6.55;2.55;;;30.20;99.50;;;;;;4978818;28;20023;-62
2023/06/08 01:11:42;;;;;;;5.35;1.70;;;30.20;99.50;;;;;;4975423;28;20054;-60
2023/06/08 01:14:41;;;;;;;7.80;2.10;;;30.20;99.50;;;;;;4974230;28;20039;-59
2023/06/08 01:17:12;;;;;;;6.45;1.98;;;30.20;99.50;;;;;;4977643;28;20041;-57
2023/06/08 01:19:57;;;;;;;3.95;1.25;;;30.30;99.50;;;;;;4978609;28;20055;-59
2023/06/08 01:22:56;;;;;;;4.93;1.08;;;30.10;99.40;;;;;;4979213;28;20078;-59
2023/06/08 01:25:29;;;;;;;5.90;1.02;;;30.00;99.40;;;;;;4980362;28;20321;-62
2023/06/08 01:28:13;;;;;;;3.67;1.15;;;30.00;99.40;;;;;;4974466;28;20059;-62
2023/06/08 01:30:48;;;;;;;5.03;1.08;;;30.10;99.60;;;;;;4976761;28;20033;-63
2023/06/08 01:33:23;;;;;;;2.15;0.80;;;30.20;99.40;;;;;;4974836;28;20054;-62
2023/06/08 01:36:15;;;;;;;5.18;0.90;;;30.20;99.10;;;;;;4985598;28;20031;-62
2023/06/08 01:38:47;;;;;;;6.45;1.02;;;30.20;98.90;;;;;;4965711;29;20035;-60
2023/06/08 01:41:22;;;;;;;3.25;1.00;;;30.10;98.70;;;;;;4966292;29;20075;-61
2023/06/08 01:43:51;;;;;;;5.07;1.30;;;30.10;98.40;;;;;;4966665;28;20367;-62
2023/06/08 01:46:25;;;;;;;3.58;1.02;;;30.00;98.30;;;;;;4975864;28;20089;-61
2023/06/08 01:48:53;;;;;;;5.15;1.42;;;30.00;98.10;;;;;;4984714;28;20030;-62
2023/06/08 01:51:21;;;;;;;7.55;1.00;;;29.90;97.90;;;;;;4980353;28;20307;-61
2023/06/08 01:53:47;;;;;;;5.55;1.10;;;29.90;97.90;;;;;;4976585;28;20076;-61
2023/06/08 01:56:14;;;;;;;3.45;1.10;;;29.90;97.80;;;;;;4970825;28;20142;-61
2023/06/08 01:58:41;;;;;;;5.75;1.10;;;29.80;97.80;;;;;;4982817;28;20350;-62
2023/06/08 02:01:07;;;;;;;2.35;0.88;;;29.80;97.70;;;;;;4974032;28;20035;-60
2023/06/08 02:03:34;;;;;;;5.18;1.00;;;29.80;97.60;;;;;;4973157;28;20090;-62
2023/06/08 02:06:02;;;;;;;3.55;0.93;;;29.80;97.80;;;;;;4977876;28;20102;-62
2023/06/08 02:08:28;;;;;;;4.72;0.80;;;29.80;97.50;;;;;;4981786;28;20030;-61
2023/06/08 02:10:54;;;;;;;5.10;0.90;;;29.80;97.50;;;;;;4985110;28;20062;-61
2023/06/08 02:13:21;;;;;;;5.72;0.85;;;29.90;97.40;;;;;;4984883;28;20315;-61
2023/06/08 02:15:48;;;;;;;6.78;0.90;;;29.80;97.20;;;;;;4978298;28;20059;-61
2023/06/08 02:18:14;;;;;;;2.72;0.70;;;29.80;97.30;;;;;;4957109;28;20355;-61
2023/06/08 02:20:42;;;;;;;5.90;0.80;;;29.80;97.30;;;;;;4976621;28;20038;-62
2023/06/08 02:23:09;;;;;;;3.90;0.90;;;29.80;97.30;;;;;;4972160;28;20023;-61
2023/06/08 02:25:35;;;;;;;4.13;1.80;;;29.80;97.30;;;;;;4971814;28;20136;-61
2023/06/08 02:28:02;;;;;;;10.60;4.53;;;29.70;97.30;;;;;;4974464;28;20033;-58
2023/06/08 02:30:28;;;;;;;10.07;4.68;;;29.70;97.40;;;;;;4973411;28;20039;-63
2023/06/08 02:32:55;;;;;;;11.85;5.28;;;29.70;97.50;;;;;;4979488;28;20089;-62
2023/06/08 02:35:21;;;;;;;11.95;4.05;;;29.70;97.80;;;;;;4969498;29;20031;-62
2023/06/08 02:37:48;;;;;;;7.63;2.83;;;29.70;97.70;;;;;;4969288;29;20053;-60
2023/06/08 02:40:14;;;;;;;7.22;4.40;;;29.80;97.70;;;;;;4969283;29;20067;-61
2023/06/08 02:42:41;;;;;;;9.05;4.72;;;29.70;97.70;;;;;;4972918;28;20019;-60
2023/06/08 02:45:09;;;;;;;9.98;5.10;;;29.70;97.80;;;;;;4976724;28;20096;-61
2023/06/08 02:47:36;;;;;;;6.85;4.45;;;29.90;97.80;;;;;;4985171;28;20098;-61
2023/06/08 02:50:02;;;;;;;10.45;4.05;;;29.90;97.70;;;;;;4982184;28;20322;-61
2023/06/08 02:52:29;;;;;;;9.98;3.58;;;29.70;97.60;;;;;;4968964;29;20059;-60
2023/06/08 02:54:55;;;;;;;6.65;3.30;;;29.90;97.70;;;;;;4973502;28;20101;-60
2023/06/08 02:57:22;;;;;;;7.13;2.90;;;29.70;97.60;;;;;;4988148;28;20034;-60
2023/06/08 02:59:48;;;;;;;4.60;1.92;;;29.70;97.60;;;;;;4988394;28;20058;-60
2023/06/08 03:02:15;;;;;;;4.68;1.60;;;29.70;97.60;;;;;;4987742;28;20090;-61
2023/06/08 03:04:43;;;;;;;5.97;1.60;;;29.70;97.70;;;;;;4988030;28;20319;-61
2023/06/08 03:07:17;;;;;;;6.28;1.02;;;29.70;97.70;;;;;;4987946;28;20038;-60
2023/06/08 03:09:46;;;;;;;4.78;1.20;;;29.70;97.80;;;;;;4987676;28;20034;-59
2023/06/08 03:12:13;;;;;;;4.82;1.08;;;29.70;97.70;;;;;;4980179;28;20091;-63
2023/06/08 03:14:40;;;;;;;5.25;1.27;;;29.70;97.80;;;;;;4967365;29;20058;-62
2023/06/08 03:17:07;;;;;;;5.43;1.23;;;29.80;97.80;;;;;;4972037;28;20038;-62
2023/06/08 03:19:34;;;;;;;8.30;1.08;;;29.70;97.70;;;;;;4987620;28;20114;-62
2023/06/08 03:22:04;;;;;;;8.90;1.00;;;29.70;97.70;;;;;;4976122;28;20094;-61
2023/06/08 03:24:31;;;;;;;3.78;0.93;;;29.70;97.70;;;;;;4971623;28;20031;-61
2023/06/08 03:27:01;;;;;;;4.63;1.02;;;29.80;97.70;;;;;;4978537;28;20043;-61
2023/06/08 03:29:27;;;;;;;5.82;1.13;;;29.80;97.70;;;;;;4969512;28;20122;-61
2023/06/08 03:31:54;;;;;;;6.55;0.70;;;29.70;97.60;;;;;;4968225;29;20252;-62
2023/06/08 03:34:23;;;;;;;6.72;1.02;;;29.70;97.50;;;;;;4968374;29;20030;-61
2023/06/08 03:36:50;;;;;;;7.75;0.60;;;29.80;97.60;;;;;;4968162;29;20050;-64
2023/06/08 03:39:16;;;;;;;8.18;0.90;;;29.70;97.60;;;;;;4968283;29;20015;-61
2023/06/08 03:41:42;;;;;;;5.30;0.60;;;29.70;97.50;;;;;;4968352;29;20252;-60
2023/06/08 03:44:09;;;;;;;7.82;0.80;;;29.70;97.70;;;;;;4968206;29;20315;-61
2023/06/08 03:46:35;;;;;;;5.22;0.57;;;29.70;97.40;;;;;;4968059;29;20042;-60
2023/06/08 03:49:02;;;;;;;7.32;0.70;;;29.70;97.40;;;;;;4968163;29;20042;-57
2023/06/08 03:51:28;;;;;;;2.55;0.50;;;29.70;97.40;;;;;;4973099;28;20361;-58
2023/06/08 03:53:55;;;;;;;4.80;0.80;;;29.70;97.50;;;;;;4987327;28;20030;-58
2023/06/08 03:56:22;;;;;;;6.95;1.00;;;29.70;97.50;;;;;;4987946;28;20045;-61
2023/06/08 03:58:51;;;;;;;6.35;0.70;;;29.70;97.50;;;;;;4987258;28;20027;-54
2023/06/08 04:01:22;;;;;;;4.85;0.90;;;29.70;97.40;;;;;;4980394;28;20027;-55
2023/06/08 04:03:48;;;;;;;5.68;0.93;;;29.70;97.40;;;;;;4976025;28;20315;-57
2023/06/08 04:06:16;;;;;;;6.70;1.00;;;29.70;97.30;;;;;;4968225;29;20069;-57
2023/06/08 04:08:44;;;;;;;6.55;1.08;;;29.70;97.30;;;;;;4967591;29;20090;-59
2023/06/08 04:11:12;;;;;;;4.22;0.80;;;29.80;97.40;;;;;;4967722;28;20043;-55
2023/06/08 04:13:40;;;;;;;3.00;0.60;;;29.70;97.30;;;;;;4975579;28;20326;-56
2023/06/08 04:16:11;;;;;;;7.88;0.90;;;29.70;97.30;;;;;;4987142;28;20035;-55
2023/06/08 04:18:42;;;;;;;4.95;0.65;;;29.70;97.20;;;;;;4986858;28;20056;-57
2023/06/08 04:21:08;;;;;;;6.03;0.90;;;29.70;97.20;;;;;;4986482;28;20339;-58
2023/06/08 04:23:36;;;;;;;4.47;0.65;;;29.70;97.20;;;;;;4972109;28;20192;-56
2023/06/08 04:26:07;;;;;;;2.70;0.50;;;29.70;97.20;;;;;;4968881;28;20338;-64
2023/06/08 04:28:35;;;;;;;6.93;0.93;;;29.70;97.10;;;;;;4973438;28;20034;-61
2023/06/08 04:31:04;;;;;;;8.88;1.00;;;29.60;97.10;;;;;;4986813;28;20027;-61
2023/06/08 04:33:31;;;;;;;3.75;0.60;;;29.60;97.00;;;;;;4986384;28;20379;-60
2023/06/08 04:35:58;;;;;;;5.10;0.70;;;29.50;97.00;;;;;;4986659;28;20050;-60
2023/06/08 04:38:25;;;;;;;5.63;0.63;;;29.50;96.90;;;;;;4986795;28;20026;-62
2023/06/08 04:40:53;;;;;;;4.80;0.70;;;29.40;96.80;;;;;;4986898;28;20027;-62
2023/06/08 04:43:20;;;;;;;4.95;0.52;;;29.50;96.90;;;;;;4984786;28;20030;-61
2023/06/08 04:45:55;;;;;;;8.25;0.80;;;29.40;96.70;;;;;;4967378;29;20035;-61
2023/06/08 04:48:24;;;;;;;4.82;0.57;;;29.40;96.80;;;;;;4966782;29;20311;-63
2023/06/08 04:50:51;;;;;;;4.55;0.52;;;29.40;96.80;;;;;;4966939;29;20113;-61
2023/06/08 04:53:21;;;;;;;8.15;0.80;;;29.30;96.90;;;;;;4966754;29;20026;-61
2023/06/08 04:55:49;;;;;;;2.53;0.47;;;29.40;97.00;;;;;;4967213;29;20164;-62
2023/06/08 04:58:15;;;;;;;4.35;0.55;;;29.40;97.10;;;;;;4966452;29;20027;-61
2023/06/08 05:00:42;;;;;;;4.72;0.70;;;29.40;97.10;;;;;;4969725;28;20025;-61
2023/06/08 05:03:08;;;;;;;2.78;0.52;;;29.40;97.30;;;;;;4986171;28;20019;-61
2023/06/08 05:05:35;;;;;;;3.15;0.47;;;29.40;97.40;;;;;;4967251;28;20106;-61
2023/06/08 05:08:01;;;;;;;5.65;0.77;;;29.40;97.30;;;;;;4974525;28;20065;-62
2023/06/08 05:10:28;;;;;;;6.72;0.73;;;29.30;97.30;;;;;;4986037;28;20057;-62
2023/06/08 05:12:56;;;;;;;6.85;0.60;;;29.40;97.50;;;;;;4985695;28;20218;-63
2023/06/08 05:15:23;;;;;;;6.13;0.77;;;29.40;97.40;;;;;;4985884;28;20307;-61
2023/06/08 05:17:51;;;;;;;6.75;0.73;;;29.40;97.30;;;;;;4985461;28;20026;-61
2023/06/08 05:20:19;;;;;;;7.35;0.80;;;29.40;97.20;;;;;;4985950;28;20038;-63
2023/06/08 05:22:46;;;;;;;4.88;0.45;;;29.30;97.00;;;;;;4985463;28;20018;-62
2023/06/08 05:25:12;;;;;;;4.32;0.80;;;29.30;96.90;;;;;;4985791;28;20023;-67
2023/06/08 05:27:39;;;;;;;6.15;0.50;;;29.30;96.90;;;;;;4985387;28;20039;-62
2023/06/08 05:30:06;;;;;;;4.00;0.50;;;29.30;97.00;;;;;;4985741;28;20117;-63
2023/06/08 05:32:33;;;;;;;5.15;0.70;;;29.20;97.00;;;;;;4985581;28;20026;-62
2023/06/08 05:35:00;;;;;;;5.22;0.77;;;29.30;97.20;;;;;;4985666;28;20350;-62
2023/06/08 05:37:27;;;;;;;5.30;0.90;;;29.30;97.30;;;;;;4985382;28;20301;-60
2023/06/08 05:39:53;;;;;;;7.63;0.90;;;29.30;97.40;;;;;;4985642;28;20022;-61
2023/06/08 05:42:20;;;;;;;8.13;1.30;;;29.40;97.50;;;;;;4985429;28;20318;-61
2023/06/08 05:44:47;;;;;;;5.72;0.90;;;29.40;97.60;;;;;;4985371;28;20027;-61
2023/06/08 05:47:14;;;;;;;3.15;0.70;;;29.40;97.60;;;;;;4985239;28;20027;-61
2023/06/08 05:49:40;;;;;;;4.30;0.85;;;29.40;97.70;;;;;;4985272;28;20192;-62
2023/06/08 05:52:07;;;;;;;5.30;0.90;;;29.50;97.70;;;;;;4984773;28;20022;-61
2023/06/08 05:54:33;;;;;;;5.20;0.88;;;29.50;97.80;;;;;;4982294;28;20027;-61
2023/06/08 05:57:00;;;;;;;3.30;0.70;;;29.50;97.80;;;;;;4980038;28;20040;-60
2023/06/08 05:59:27;;;;;;;5.65;0.77;;;29.50;97.90;;;;;;4985180;28;20047;-61
2023/06/08 06:01:54;;;;;;;5.07;0.80;;;29.50;97.90;;;;;;4985148;28;20030;-62
2023/06/08 06:04:21;;;;;;;6.97;1.05;;;29.50;98.00;;;;;;4984958;28;20053;-62
2023/06/08 06:06:47;;;;;;;5.45;0.60;;;29.50;97.90;;;;;;4985121;28;20023;-62
2023/06/08 06:09:14;;;;;;;8.52;1.10;;;29.60;98.00;;;;;;4984909;28;20042;-62
2023/06/08 06:11:40;;;;;;;7.75;1.00;;;29.50;97.90;;;;;;4984886;28;20035;-61
2023/06/08 06:14:07;;;;;;;3.80;0.93;;;29.60;97.90;;;;;;4985208;28;20015;-61
2023/06/08 06:16:33;;;;;;;7.80;1.02;;;29.50;97.90;;;;;;4985014;28;20111;-61
2023/06/08 06:19:00;;;;;;;7.30;1.00;;;29.50;98.00;;;;;;4984902;28;20043;-62
2023/06/08 06:21:26;;;;;;;8.60;1.55;;;29.50;98.10;;;;;;4985564;28;20031;-61
2023/06/08 06:23:53;;;;;;;6.60;0.90;;;29.50;97.90;;;;;;4985123;28;20014;-61
2023/06/08 06:26:19;;;;;;;9.02;1.08;;;29.60;98.00;;;;;;4985403;28;20043;-62
2023/06/08 06:28:46;;;;;;;5.35;0.90;;;29.40;97.90;;;;;;4984889;28;20026;-62
2023/06/08 06:31:12;;;;;;;3.33;0.90;;;29.40;97.90;;;;;;4985307;28;20046;-61
2023/06/08 06:33:39;;;;;;;5.32;0.90;;;29.30;98.00;;;;;;4984791;28;20054;-62
2023/06/08 06:36:06;;;;;;;3.83;0.75;;;29.40;98.10;;;;;;4985018;28;20042;-62
2023/06/08 06:38:32;;;;;;;8.88;1.02;;;29.30;98.10;;;;;;4984674;28;20023;-62
2023/06/08 06:40:59;;;;;;;5.90;1.00;;;29.30;98.20;;;;;;4984661;28;20043;-62
2023/06/08 06:43:25;;;;;;;5.45;1.15;;;29.40;98.30;;;;;;4984920;28;20022;-61
2023/06/08 06:45:52;;;;;;;6.30;0.70;;;29.40;98.30;;;;;;4985214;28;20198;-61
2023/06/08 06:48:22;;;;;;;6.28;0.80;;;29.40;98.30;;;;;;4984615;28;20034;-62
2023/06/08 06:50:49;;;;;;;3.53;0.60;;;29.40;98.30;;;;;;4984763;28;20033;-61
2023/06/08 06:53:16;;;;;;;8.15;1.38;;;29.30;98.20;;;;;;4984729;28;20022;-61
2023/06/08 06:55:42;;;;;;;4.47;0.80;;;29.30;98.20;;;;;;4980889;28;20063;-62
2023/06/08 06:58:10;;;;;;;8.43;0.90;;;29.30;98.30;;;;;;4965601;29;20047;-61
2023/06/08 07:00:37;;;;;;;6.30;0.80;;;29.30;98.40;;;;;;4965772;29;20055;-59
2023/06/08 07:03:07;;;;;;;5.25;0.80;;;29.40;98.40;;;;;;4966590;28;20023;-57
2023/06/08 07:05:36;;;;;;;5.85;0.77;;;29.20;98.30;;;;;;4968942;29;20019;-62
2023/06/08 07:08:03;;;;;;;5.75;0.85;;;29.30;98.30;;;;;;4968823;29;20051;-61
2023/06/08 07:10:30;;;;;;;8.35;1.08;;;29.30;98.40;;;;;;4968922;29;20065;-61
2023/06/08 07:12:59;;;;;;;5.70;0.70;;;29.20;98.40;;;;;;4968499;29;20059;-61
2023/06/08 07:15:27;;;;;;;6.20;0.88;;;29.20;98.40;;;;;;4968635;29;20070;-61
2023/06/08 07:17:53;;;;;;;7.43;0.93;;;29.20;98.40;;;;;;4968284;29;20019;-63
2023/06/08 07:20:20;;;;;;;6.22;0.93;;;29.10;98.60;;;;;;4968534;29;20023;-61
2023/06/08 07:22:46;;;;;;;7.20;1.20;;;29.20;98.70;;;;;;4968325;29;20066;-61
2023/06/08 07:25:15;;;;;;;6.15;0.93;;;29.30;98.70;;;;;;4968778;29;20300;-61
2023/06/08 07:27:41;;;;;;;9.13;0.80;;;29.30;98.60;;;;;;4968185;29;20038;-59
2023/06/08 07:30:08;;;;;;;10.77;1.48;;;29.20;98.60;;;;;;4968449;29;20054;-62
2023/06/08 07:32:35;;;;;;;7.45;0.90;;;29.30;98.70;;;;;;4968373;29;20053;-62
2023/06/08 07:35:04;;;;;;;3.33;0.80;;;29.20;98.70;;;;;;4968396;29;20031;-62
2023/06/08 07:37:30;;;;;;;9.23;0.93;;;29.30;98.70;;;;;;4968069;29;20035;-61
2023/06/08 07:39:57;;;;;;;6.18;0.70;;;29.10;98.70;;;;;;4968022;29;20031;-61
2023/06/08 07:42:23;;;;;;;6.50;0.98;;;29.20;98.80;;;;;;4968172;29;20019;-61
2023/06/08 07:44:50;;;;;;;6.55;0.70;;;29.20;98.80;;;;;;4968045;29;20027;-61
2023/06/08 07:47:17;;;;;;;8.07;1.00;;;29.10;99.10;;;;;;4967888;29;20027;-60
2023/06/08 07:49:43;;;;;;;7.63;0.95;;;29.20;98.90;;;;;;4968048;29;20102;-60
2023/06/08 07:52:10;;;;;;;4.38;0.77;;;29.20;98.90;;;;;;4968069;29;20038;-59
2023/06/08 07:54:36;;;;;;;4.75;0.90;;;29.20;98.90;;;;;;4967943;29;20027;-60
2023/06/08 07:57:03;;;;;;;7.57;1.00;;;29.30;99.00;;;;;;4967705;29;20047;-60
2023/06/08 07:59:30;;;;;;;9.57;1.00;;;29.30;99.10;;;;;;4968122;29;20031;-62
2023/06/08 08:01:56;;;;;;;4.78;0.80;;;29.20;99.10;;;;;;4968061;29;20086;-63
2023/06/08 08:04:23;;;;;;;5.32;0.98;;;29.40;99.30;;;;;;4967708;29;20035;-61
2023/06/08 08:06:49;;;;;;;4.93;0.85;;;29.30;99.30;;;;;;4967518;29;20034;-61
2023/06/08 08:09:16;;;;;;;4.85;0.75;;;29.40;99.50;;;;;;4967598;29;20188;-60
2023/06/08 08:11:42;;;;;;;3.38;0.65;;;29.40;99.50;;;;;;4967551;29;20098;-59
2023/06/08 08:14:09;;;;;;;5.30;0.77;;;29.40;99.50;;;;;;4967012;28;20059;-61
2023/06/08 08:16:39;;;;;;;5.25;0.88;;;29.50;99.70;;;;;;4967396;29;20055;-61
2023/06/08 08:19:06;;;;;;;6.22;0.73;;;29.50;99.70;;;;;;4967066;29;20051;-60
2023/06/08 08:21:33;;;;;;;2.92;1.00;;;29.50;99.60;;;;;;4967459;29;20038;-60
2023/06/08 08:24:00;;;;;;;5.05;0.90;;;29.50;99.70;;;;;;4967391;29;20215;-62
2023/06/08 08:26:28;;;;;;;5.55;0.98;;;29.60;99.80;;;;;;4967927;29;20320;-61
2023/06/08 08:28:56;;;;;;;7.07;1.40;;;29.70;99.90;;;;;;4967480;29;20073;-61
2023/06/08 08:31:23;;;;;;;7.45;1.33;;;29.70;99.90;;;;;;4967566;29;20333;-61
2023/06/08 08:33:50;;;;;;;5.32;0.90;;;29.60;99.80;;;;;;4967006;29;20319;-61
2023/06/08 08:36:17;;;;;;;6.95;1.23;;;29.70;99.90;;;;;;4967473;29;20326;-62
2023/06/08 08:38:43;;;;;;;6.90;0.82;;;29.70;99.90;;;;;;4967059;29;20080;-61
2023/06/08 08:41:14;;;;;;;2.88;0.80;;;29.70;99.80;;;;;;4967445;29;20299;-63
2023/06/08 08:44:03;;;;;;;3.25;0.80;;;29.70;99.70;;;;;;4967056;29;20031;-63
2023/06/08 08:46:33;;;;;;;4.25;0.77;;;29.80;99.70;;;;;;4966700;29;20315;-64
2023/06/08 08:49:04;;;;;;;4.97;1.08;;;29.70;99.70;;;;;;4966942;29;20142;-59
2023/06/08 08:51:38;;;;;;;3.57;1.07;;;29.60;99.90;;;;;;4966763;29;20035;-62
2023/06/08 08:54:06;;;;;;;2.47;0.80;;;29.60;99.90;;;;;;4967137;29;20035;-62
2023/06/08 08:56:35;;;;;;;3.17;0.70;;;29.60;99.90;;;;;;4966528;29;20055;-61
2023/06/08 08:59:04;;;;;;;1.88;0.50;;;29.60;99.90;;;;;;4966583;29;20094;-62
2023/06/08 09:01:33;;;;;;;2.22;0.70;;;29.60;99.90;;;;;;4966509;29;20323;-61
2023/06/08 09:04:00;;;;;;;4.25;0.77;;;29.60;99.90;;;;;;4966524;29;20039;-61
2023/06/08 09:06:30;;;;;;;3.67;0.85;;;29.60;99.90;;;;;;4966958;29;20039;-60
2023/06/08 09:08:57;;;;;;;2.60;0.60;;;29.60;99.90;;;;;;4966585;29;20019;-60
2023/06/08 09:11:23;;;;;;;2.22;0.50;;;29.50;99.90;;;;;;4966922;29;20039;-62
2023/06/08 09:14:07;;;;;;;2.35;0.52;;;29.40;99.90;;;;;;4966169;29;20303;-61
2023/06/08 09:16:45;;;;;;;1.92;0.43;;;29.50;99.90;;;;;;4966270;29;20057;-62
2023/06/08 09:19:12;;;;;;;0.98;0.28;;;29.50;99.90;;;;;;4968099;28;20110;-60
2023/06/08 09:21:43;;;;;;;2.20;0.38;;;29.40;99.90;;;;;;4985479;28;20063;-61
2023/06/08 09:24:21;;;;;;;0.63;0.30;;;29.50;99.90;;;;;;4985615;28;20022;-63
2023/06/08 09:26:56;;;;;;;4.20;0.50;;;29.50;99.90;;;;;;4985206;28;20094;-61
2023/06/08 09:29:42;;;;;;;3.38;0.47;;;29.50;99.90;;;;;;4985393;28;20027;-63
2023/06/08 09:32:12;;;;;;;2.58;0.45;;;29.40;99.90;;;;;;4985600;28;20102;-62
2023/06/08 09:34:56;;;;;;;4.82;0.40;;;29.40;99.90;;;;;;4985559;28;20027;-61
2023/06/08 09:37:27;;;;;;;0.73;0.30;;;29.40;99.90;;;;;;4985146;28;20098;-62
2023/06/08 09:39:54;;;;;;;2.60;0.40;;;29.30;99.90;;;;;;4985436;28;20041;-62
2023/06/08 09:42:21;;;;;;;3.20;0.50;;;29.30;99.90;;;;;;4985300;28;20200;-63
2023/06/08 09:44:48;;;;;;;2.92;0.40;;;29.30;99.90;;;;;;4985445;28;20030;-62
2023/06/08 09:47:25;;;;;;;3.35;0.50;;;29.30;99.90;;;;;;4985314;28;20057;-62
2023/06/08 09:49:53;;;;;;;0.77;0.25;;;29.40;99.90;;;;;;4985061;28;20306;-61
2023/06/08 09:52:21;;;;;;;2.90;0.45;;;29.40;99.90;;;;;;4985131;28;20023;-61
2023/06/08 09:54:49;;;;;;;2.03;0.40;;;29.40;99.90;;;;;;4985250;28;20369;-61
2023/06/08 09:57:17;;;;;;;2.22;0.25;;;29.40;99.90;;;;;;4984864;28;20042;-61
2023/06/08 09:59:48;;;;;;;2.10;0.32;;;29.40;99.90;;;;;;4985028;28;20029;-61
2023/06/08 10:02:30;;;;;;;3.30;0.30;;;29.30;99.90;;;;;;4985004;28;20411;-61
2023/06/08 10:05:03;;;;;;;1.75;0.22;;;29.20;99.90;;;;;;4985206;28;20034;-62
2023/06/08 10:07:35;;;;;;;0.65;0.20;;;29.30;99.90;;;;;;4984798;28;20042;-62
2023/06/08 10:10:22;;;;;;;0.93;0.32;;;29.20;99.90;;;;;;4985011;28;20027;-62
2023/06/08 10:12:49;;;;;;;3.00;0.50;;;29.30;99.90;;;;;;4984692;28;20026;-61
2023/06/08 10:15:16;;;;;;;2.42;0.30;;;29.20;99.90;;;;;;4985020;28;20035;-61
2023/06/08 10:17:44;;;;;;;1.70;0.30;;;29.30;99.90;;;;;;4984709;28;20039;-64
2023/06/08 10:20:12;;;;;;;0.63;0.20;;;29.30;99.90;;;;;;4984532;28;20109;-62
2023/06/08 10:22:40;;;;;;;2.00;0.40;;;29.30;99.90;;;;;;4984935;28;20026;-65
2023/06/08 10:25:09;;;;;;;1.45;0.40;;;29.30;99.90;;;;;;4984927;28;20031;-63
2023/06/08 10:27:36;;;;;;;3.78;1.05;;;29.40;99.90;;;;;;4984614;28;20053;-61
2023/06/08 10:30:05;;;;;;;2.25;0.40;;;29.30;99.90;;;;;;4984926;28;20034;-61
2023/06/08 10:32:39;;;;;;;1.05;0.30;;;29.40;99.90;;;;;;4984691;28;20031;-62
2023/06/08 10:35:07;;;;;;;2.28;0.30;;;29.30;99.90;;;;;;4984730;28;20382;-62
2023/06/08 10:37:36;;;;;;;3.78;0.50;;;29.20;99.70;;;;;;4987085;28;20058;-62
2023/06/08 10:40:10;;;;;;;1.92;0.65;;;29.20;99.80;;;;;;4988825;28;20026;-61
2023/06/08 10:42:38;;;;;;;4.25;0.80;;;29.30;99.80;;;;;;4988615;28;20032;-60
2023/06/08 10:45:05;;;;;;;5.30;1.52;;;29.20;99.70;;;;;;4988649;28;20050;-60
2023/06/08 10:47:36;;;;;;;5.63;1.10;;;29.20;99.70;;;;;;4988380;28;20082;-63
2023/06/08 10:50:08;;;;;;;5.13;1.30;;;29.10;99.60;;;;;;4988627;28;20041;-63
2023/06/08 10:52:43;;;;;;;;;;;29.10;99.60;;;;;;4988664;28;20319;-63
2023/06/08 10:55:16;;;;;;;5.20;1.15;;;29.10;99.60;;;;;;4988659;28;19918;-63
2023/06/08 10:57:46;;;;;;;;;;;29.00;99.80;;;;;;4988388;28;20019;-60
2023/06/08 11:00:31;;;;;;;3.05;0.95;;;29.00;99.80;;;;;;4988260;28;20191;-61
2023/06/08 11:03:09;;;;;;;8.05;0.98;;;29.00;99.90;;;;;;4988069;28;20319;-62
2023/06/08 11:05:37;;;;;;;4.95;1.20;;;29.00;99.90;;;;;;4988202;28;20256;-61
2023/06/08 11:08:07;;;;;;;4.78;0.95;;;28.90;99.90;;;;;;4988036;28;20030;-63
2023/06/08 11:10:34;;;;;;;10.05;1.67;;;29.00;99.90;;;;;;4988347;28;20243;-61
2023/06/08 11:13:05;;;;;;;8.32;1.45;;;29.00;99.90;;;;;;4987851;28;20058;-63
2023/06/08 11:15:34;;;;;;;6.10;1.40;;;29.00;99.90;;;;;;4988024;28;20042;-64
2023/06/08 11:18:01;;;;;;;9.95;1.40;;;29.10;99.90;;;;;;4987462;28;20026;-62
2023/06/08 11:20:28;;;;;;;7.22;1.60;;;29.00;99.90;;;;;;4988233;28;20061;-63
2023/06/08 11:22:55;;;;;;;8.70;2.75;;;29.10;99.90;;;;;;4987813;28;20368;-63
2023/06/08 11:25:22;;;;;;;6.97;2.35;;;29.00;99.90;;;;;;4987838;28;20035;-60
2023/06/08 11:27:57;;;;;;;6.40;2.13;;;29.10;99.90;;;;;;4987767;28;20034;-61
2023/06/08 11:30:31;;;;;;;11.20;4.07;;;29.00;99.90;;;;;;4987819;28;20342;-61
2023/06/08 11:32:58;;;;;;;6.72;2.92;;;29.10;99.90;;;;;;4987543;28;20266;-60
2023/06/08 11:35:25;;;;;;;6.53;2.30;;;29.10;99.90;;;;;;4987982;28;20035;-60
2023/06/08 11:37:59;;;;;;;9.40;2.47;;;29.10;99.90;;;;;;4987332;28;20315;-61
2023/06/08 11:40:28;;;;;;;7.45;2.10;;;29.10;99.90;;;;;;4988159;28;20051;-61
2023/06/08 11:42:55;;;;;;;2.45;1.20;;;29.10;99.90;;;;;;4987537;28;20082;-60
2023/06/08 11:45:23;;;;;;;6.97;1.45;;;29.10;99.90;;;;;;4987524;28;20019;-59
2023/06/08 11:47:54;;;;;;;14.13;2.80;;;29.00;99.90;;;;;;4986784;28;20031;-61
2023/06/08 11:50:22;;;;;;;10.35;2.65;;;28.90;99.90;;;;;;4987340;28;20034;-62
2023/06/08 11:52:49;;;;;;;19.23;2.92;;;28.90;99.90;;;;;;4987089;28;20027;-61
2023/06/08 11:55:22;;;;;;;13.35;2.60;;;29.00;99.90;;;;;;4987588;28;20035;-62
2023/06/08 11:58:03;;;;;;;8.35;1.85;;;28.90;99.90;;;;;;4986847;28;20054;-60
2023/06/08 12:00:33;;;;;;;6.22;1.48;;;29.00;99.90;;;;;;4987162;28;20319;-62
2023/06/08 12:03:01;;;;;;;2.22;1.10;;;29.00;99.90;;;;;;4987091;28;20026;-62
2023/06/08 12:05:31;;;;;;;6.97;1.35;;;29.00;99.90;;;;;;4987264;28;20031;-61
2023/06/08 12:07:59;;;;;;;4.80;1.30;;;29.00;99.90;;;;;;4987077;28;20294;-62
2023/06/08 12:10:33;;;;;;;6.72;1.17;;;29.20;99.90;;;;;;4987159;28;20027;-64
2023/06/08 12:13:10;;;;;;;2.17;0.80;;;29.10;99.90;;;;;;4986870;28;20031;-62
2023/06/08 12:15:48;;;;;;;1.73;0.80;;;29.10;99.90;;;;;;4986967;28;20030;-62
2023/06/08 12:18:16;;;;;;;1.88;0.80;;;29.20;99.90;;;;;;4986759;28;20039;-61
2023/06/08 12:20:45;;;;;;;4.97;1.00;;;29.10;99.90;;;;;;4986554;28;20307;-60
2023/06/08 12:23:12;;;;;;;4.30;1.02;;;29.30;99.90;;;;;;4986754;28;20094;-60
2023/06/08 12:25:43;;;;;;;3.75;0.60;;;29.30;99.90;;;;;;4987210;28;20196;-61
2023/06/08 12:28:24;;;;;;;3.67;0.85;;;29.30;99.90;;;;;;4986590;28;20065;-61
2023/06/08 12:30:51;;;;;;;3.97;0.75;;;29.40;99.90;;;;;;4986719;28;20027;-61
2023/06/08 12:33:18;;;;;;;3.05;0.52;;;29.40;99.90;;;;;;4986691;28;20045;-61
2023/06/08 12:35:46;;;;;;;4.43;0.90;;;29.40;99.90;;;;;;4986682;28;20066;-57
2023/06/08 12:38:12;;;;;;;3.55;0.63;;;29.50;99.90;;;;;;4986271;28;20031;-60
2023/06/08 12:40:47;;;;;;;2.88;0.43;;;29.50;99.90;;;;;;4986672;28;20098;-60
2023/06/08 12:43:21;;;;;;;3.22;0.70;;;29.50;99.90;;;;;;4986228;28;20046;-59
2023/06/08 12:45:49;;;;;;;4.70;0.60;;;29.50;99.90;;;;;;4986589;28;20035;-61
2023/06/08 12:48:15;;;;;;;4.72;0.45;;;29.50;99.90;;;;;;4986132;28;20031;-61
2023/06/08 12:50:42;;;;;;;2.83;0.30;;;29.50;99.90;;;;;;4986296;28;20022;-62
2023/06/08 12:53:10;;;;;;;3.13;0.50;;;29.50;99.90;;;;;;4986005;28;20142;-60
2023/06/08 12:55:37;;;;;;;2.15;0.50;;;29.50;99.90;;;;;;4986314;28;20050;-61
2023/06/08 12:58:04;;;;;;;1.60;0.52;;;29.40;99.90;;;;;;4986102;28;20148;-61